sensor_id;sensor_type;location;lat;lon;timestamp;temperature;humidity
13198;DHT22;6664;52.514;13.440;2022-09-03T00:02:27;12.80;41.50
13198;DHT22;6664;52.514;13.440;2022-09-03T00:08:27;12.80;41.80
13198;DHT22;6664;52.514;13.440;2022-09-03T00:14:32;12.70;41.80
13198;DHT22;6664;52.514;13.440;2022-09-03T00:16:58;12.70;42.00
13198;DHT22;6664;52.514;13.440;2022-09-03T00:19:34;12.70;41.80
13198;DHT22;6664;52.514;13.440;2022-09-03T00:22:10;12.70;42.20
13198;DHT22;6664;52.514;13.440;2022-09-03T00:24:44;12.80;42.20
13198;DHT22;6664;52.514;13.440;2022-09-03T00:27:17;12.70;42.00
13198;DHT22;6664;52.514;13.440;2022-09-03T00:30:10;12.70;42.40
13198;DHT22;6664;52.514;13.440;2022-09-03T00:32:56;12.70;42.00
13198;DHT22;6664;52.514;13.440;2022-09-03T00:35:31;12.70;42.10
13198;DHT22;6664;52.514;13.440;2022-09-03T00:37:59;12.60;42.40
13198;DHT22;6664;52.514;13.440;2022-09-03T00:46:17;12.50;42.80
13198;DHT22;6664;52.514;13.440;2022-09-03T00:51:46;12.60;42.80
13198;DHT22;6664;52.514;13.440;2022-09-03T00:54:17;12.60;43.40
13198;DHT22;6664;52.514;13.440;2022-09-03T00:56:57;12.50;42.90
13198;DHT22;6664;52.514;13.440;2022-09-03T01:05:33;12.40;43.20
13198;DHT22;6664;52.514;13.440;2022-09-03T01:14:19;12.30;43.40
13198;DHT22;6664;52.514;13.440;2022-09-03T01:19:53;12.20;43.70
13198;DHT22;6664;52.514;13.440;2022-09-03T01:25:07;12.10;43.60
13198;DHT22;6664;52.514;13.440;2022-09-03T01:30:16;12.10;43.90
13198;DHT22;6664;52.514;13.440;2022-09-03T01:50:50;12.10;44.20
13198;DHT22;6664;52.514;13.440;2022-09-03T01:56:36;12.00;44.20
13198;DHT22;6664;52.514;13.440;2022-09-03T01:59:17;12.00;44.20
13198;DHT22;6664;52.514;13.440;2022-09-03T02:02:01;12.00;44.30
13198;DHT22;6664;52.514;13.440;2022-09-03T02:04:28;12.00;44.40
13198;DHT22;6664;52.514;13.440;2022-09-03T02:06:59;12.00;45.00
13198;DHT22;6664;52.514;13.440;2022-09-03T02:09:27;12.00;44.40
13198;DHT22;6664;52.514;13.440;2022-09-03T02:12:07;12.00;44.40
13198;DHT22;6664;52.514;13.440;2022-09-03T02:14:37;12.00;44.40
13198;DHT22;6664;52.514;13.440;2022-09-03T02:17:06;12.00;44.20
13198;DHT22;6664;52.514;13.440;2022-09-03T02:19:34;12.00;44.40
13198;DHT22;6664;52.514;13.440;2022-09-03T02:22:03;11.90;44.40
13198;DHT22;6664;52.514;13.440;2022-09-03T02:24:31;11.90;45.10
13198;DHT22;6664;52.514;13.440;2022-09-03T02:27:00;11.90;44.90
13198;DHT22;6664;52.514;13.440;2022-09-03T02:29:28;11.80;45.00
13198;DHT22;6664;52.514;13.440;2022-09-03T02:31:55;11.80;45.00
13198;DHT22;6664;52.514;13.440;2022-09-03T02:34:23;11.80;45.20
13198;DHT22;6664;52.514;13.440;2022-09-03T02:36:50;11.70;45.30
13198;DHT22;6664;52.514;13.440;2022-09-03T02:39:20;11.80;45.50
13198;DHT22;6664;52.514;13.440;2022-09-03T02:41:53;11.70;45.50
13198;DHT22;6664;52.514;13.440;2022-09-03T02:44:28;11.70;45.60
13198;DHT22;6664;52.514;13.440;2022-09-03T02:46:59;11.70;45.50
13198;DHT22;6664;52.514;13.440;2022-09-03T02:49:27;11.60;45.70
13198;DHT22;6664;52.514;13.440;2022-09-03T02:51:58;11.60;45.60
13198;DHT22;6664;52.514;13.440;2022-09-03T02:54:32;11.60;45.80
13198;DHT22;6664;52.514;13.440;2022-09-03T02:57:02;11.70;45.60
13198;DHT22;6664;52.514;13.440;2022-09-03T02:59:29;11.70;45.50
13198;DHT22;6664;52.514;13.440;2022-09-03T03:01:58;11.70;45.40
13198;DHT22;6664;52.514;13.440;2022-09-03T03:04:29;11.60;45.40
13198;DHT22;6664;52.514;13.440;2022-09-03T03:06:56;11.60;45.70
13198;DHT22;6664;52.514;13.440;2022-09-03T03:09:25;11.60;45.50
13198;DHT22;6664;52.514;13.440;2022-09-03T03:11:52;11.60;45.30
13198;DHT22;6664;52.514;13.440;2022-09-03T03:14:23;11.70;45.30
13198;DHT22;6664;52.514;13.440;2022-09-03T03:16:50;11.80;45.60
13198;DHT22;6664;52.514;13.440;2022-09-03T03:19:20;11.70;45.00
13198;DHT22;6664;52.514;13.440;2022-09-03T03:21:47;11.60;45.40
13198;DHT22;6664;52.514;13.440;2022-09-03T03:24:14;11.60;45.30
13198;DHT22;6664;52.514;13.440;2022-09-03T03:26:40;11.60;45.40
13198;DHT22;6664;52.514;13.440;2022-09-03T03:29:13;11.50;45.50
13198;DHT22;6664;52.514;13.440;2022-09-03T03:31:40;11.50;45.60
13198;DHT22;6664;52.514;13.440;2022-09-03T03:34:07;11.50;45.40
13198;DHT22;6664;52.514;13.440;2022-09-03T03:36:35;11.60;45.50
13198;DHT22;6664;52.514;13.440;2022-09-03T03:39:07;11.50;45.50
13198;DHT22;6664;52.514;13.440;2022-09-03T03:41:36;11.50;45.70
13198;DHT22;6664;52.514;13.440;2022-09-03T03:44:05;11.50;45.50
13198;DHT22;6664;52.514;13.440;2022-09-03T03:46:38;11.50;45.80
13198;DHT22;6664;52.514;13.440;2022-09-03T03:49:08;11.40;45.60
13198;DHT22;6664;52.514;13.440;2022-09-03T03:51:37;11.40;46.00
13198;DHT22;6664;52.514;13.440;2022-09-03T03:54:04;11.40;46.00
13198;DHT22;6664;52.514;13.440;2022-09-03T03:56:32;11.60;45.80
13198;DHT22;6664;52.514;13.440;2022-09-03T03:59:02;11.80;45.60
13198;DHT22;6664;52.514;13.440;2022-09-03T04:01:29;11.90;44.70
13198;DHT22;6664;52.514;13.440;2022-09-03T04:03:57;12.00;44.20
13198;DHT22;6664;52.514;13.440;2022-09-03T04:06:26;12.10;44.00
13198;DHT22;6664;52.514;13.440;2022-09-03T04:08:56;12.10;43.80
13198;DHT22;6664;52.514;13.440;2022-09-03T04:11:24;12.20;43.70
13198;DHT22;6664;52.514;13.440;2022-09-03T04:13:52;12.20;43.60
13198;DHT22;6664;52.514;13.440;2022-09-03T04:16:25;12.20;43.40
13198;DHT22;6664;52.514;13.440;2022-09-03T04:18:57;12.10;43.80
13198;DHT22;6664;52.514;13.440;2022-09-03T04:21:27;12.00;43.90
13198;DHT22;6664;52.514;13.440;2022-09-03T04:23:55;11.90;44.80
13198;DHT22;6664;52.514;13.440;2022-09-03T04:26:28;11.80;44.80
13198;DHT22;6664;52.514;13.440;2022-09-03T04:28:59;11.80;45.00
13198;DHT22;6664;52.514;13.440;2022-09-03T04:31:28;11.80;45.30
13198;DHT22;6664;52.514;13.440;2022-09-03T04:33:55;11.70;45.50
13198;DHT22;6664;52.514;13.440;2022-09-03T04:36:24;11.70;45.70
13198;DHT22;6664;52.514;13.440;2022-09-03T04:38:53;11.70;45.90
13198;DHT22;6664;52.514;13.440;2022-09-03T04:41:25;11.70;46.00
13198;DHT22;6664;52.514;13.440;2022-09-03T04:43:54;11.70;46.20
13198;DHT22;6664;52.514;13.440;2022-09-03T04:46:25;11.70;46.50
13198;DHT22;6664;52.514;13.440;2022-09-03T04:48:53;11.70;46.50
13198;DHT22;6664;52.514;13.440;2022-09-03T04:51:25;11.80;46.60
13198;DHT22;6664;52.514;13.440;2022-09-03T04:54:00;11.80;46.70
13198;DHT22;6664;52.514;13.440;2022-09-03T04:56:32;11.80;46.90
13198;DHT22;6664;52.514;13.440;2022-09-03T04:59:04;11.80;47.10
13198;DHT22;6664;52.514;13.440;2022-09-03T05:01:33;11.80;47.30
13198;DHT22;6664;52.514;13.440;2022-09-03T05:04:00;11.80;47.40
13198;DHT22;6664;52.514;13.440;2022-09-03T05:06:29;11.90;47.60
13198;DHT22;6664;52.514;13.440;2022-09-03T05:08:57;11.90;47.60
13198;DHT22;6664;52.514;13.440;2022-09-03T05:11:25;11.90;47.70
13198;DHT22;6664;52.514;13.440;2022-09-03T05:13:57;11.90;48.20
13198;DHT22;6664;52.514;13.440;2022-09-03T05:16:29;11.90;48.20
13198;DHT22;6664;52.514;13.440;2022-09-03T05:18:58;11.90;48.20
13198;DHT22;6664;52.514;13.440;2022-09-03T05:21:34;11.90;48.30
13198;DHT22;6664;52.514;13.440;2022-09-03T05:24:02;11.90;48.70
13198;DHT22;6664;52.514;13.440;2022-09-03T05:26:31;11.80;48.70
13198;DHT22;6664;52.514;13.440;2022-09-03T05:29:00;11.90;49.10
13198;DHT22;6664;52.514;13.440;2022-09-03T05:31:29;11.80;49.20
13198;DHT22;6664;52.514;13.440;2022-09-03T05:34:00;11.80;49.40
13198;DHT22;6664;52.514;13.440;2022-09-03T05:36:32;11.80;49.60
13198;DHT22;6664;52.514;13.440;2022-09-03T05:39:04;11.90;49.50
13198;DHT22;6664;52.514;13.440;2022-09-03T05:41:35;11.90;49.80
13198;DHT22;6664;52.514;13.440;2022-09-03T05:44:05;11.90;50.00
13198;DHT22;6664;52.514;13.440;2022-09-03T05:46:32;12.00;50.00
13198;DHT22;6664;52.514;13.440;2022-09-03T05:49:01;12.00;50.00
13198;DHT22;6664;52.514;13.440;2022-09-03T05:51:32;12.00;50.10
13198;DHT22;6664;52.514;13.440;2022-09-03T05:54:00;12.00;50.00
13198;DHT22;6664;52.514;13.440;2022-09-03T05:56:31;12.10;50.10
13198;DHT22;6664;52.514;13.440;2022-09-03T05:59:00;12.10;50.10
13198;DHT22;6664;52.514;13.440;2022-09-03T06:01:33;12.10;49.90
13198;DHT22;6664;52.514;13.440;2022-09-03T06:04:06;12.20;50.10
13198;DHT22;6664;52.514;13.440;2022-09-03T06:06:39;12.20;50.10
13198;DHT22;6664;52.514;13.440;2022-09-03T06:09:19;12.40;49.70
13198;DHT22;6664;52.514;13.440;2022-09-03T06:11:49;12.50;49.30
13198;DHT22;6664;52.514;13.440;2022-09-03T06:14:21;12.60;49.10
13198;DHT22;6664;52.514;13.440;2022-09-03T06:16:50;12.80;49.00
13198;DHT22;6664;52.514;13.440;2022-09-03T06:19:21;13.00;48.50
13198;DHT22;6664;52.514;13.440;2022-09-03T06:21:48;13.20;47.80
13198;DHT22;6664;52.514;13.440;2022-09-03T06:24:17;13.30;47.40
13198;DHT22;6664;52.514;13.440;2022-09-03T06:26:46;13.40;47.00
13198;DHT22;6664;52.514;13.440;2022-09-03T06:29:14;13.60;46.40
13198;DHT22;6664;52.514;13.440;2022-09-03T06:31:40;13.80;45.90
13198;DHT22;6664;52.514;13.440;2022-09-03T06:34:10;14.00;45.00
13198;DHT22;6664;52.514;13.440;2022-09-03T06:36:38;14.20;45.00
13198;DHT22;6664;52.514;13.440;2022-09-03T06:39:06;14.30;44.70
13198;DHT22;6664;52.514;13.440;2022-09-03T06:41:35;14.40;44.20
13198;DHT22;6664;52.514;13.440;2022-09-03T06:44:07;14.60;43.70
13198;DHT22;6664;52.514;13.440;2022-09-03T06:46:40;14.80;43.20
13198;DHT22;6664;52.514;13.440;2022-09-03T06:49:10;14.90;42.60
13198;DHT22;6664;52.514;13.440;2022-09-03T06:51:38;14.90;42.30
13198;DHT22;6664;52.514;13.440;2022-09-03T06:54:08;15.10;42.00
13198;DHT22;6664;52.514;13.440;2022-09-03T06:56:39;15.10;41.90
13198;DHT22;6664;52.514;13.440;2022-09-03T06:59:13;15.20;41.70
13198;DHT22;6664;52.514;13.440;2022-09-03T07:01:42;15.20;41.70
13198;DHT22;6664;52.514;13.440;2022-09-03T07:04:13;15.20;41.40
13198;DHT22;6664;52.514;13.440;2022-09-03T07:06:45;15.20;41.20
13198;DHT22;6664;52.514;13.440;2022-09-03T07:09:13;15.20;41.20
13198;DHT22;6664;52.514;13.440;2022-09-03T07:11:41;15.30;40.70
13198;DHT22;6664;52.514;13.440;2022-09-03T07:14:17;15.30;40.70
13198;DHT22;6664;52.514;13.440;2022-09-03T07:16:48;15.30;40.70
13198;DHT22;6664;52.514;13.440;2022-09-03T07:19:15;15.40;41.50
13198;DHT22;6664;52.514;13.440;2022-09-03T07:21:42;15.40;41.20
13198;DHT22;6664;52.514;13.440;2022-09-03T07:24:16;15.30;41.60
13198;DHT22;6664;52.514;13.440;2022-09-03T07:26:43;15.30;41.10
13198;DHT22;6664;52.514;13.440;2022-09-03T07:29:12;15.40;41.00
13198;DHT22;6664;52.514;13.440;2022-09-03T07:31:41;15.60;40.60
13198;DHT22;6664;52.514;13.440;2022-09-03T07:34:10;15.90;40.10
13198;DHT22;6664;52.514;13.440;2022-09-03T07:36:43;16.10;39.20
13198;DHT22;6664;52.514;13.440;2022-09-03T07:39:14;16.20;38.60
13198;DHT22;6664;52.514;13.440;2022-09-03T07:41:45;16.50;38.30
13198;DHT22;6664;52.514;13.440;2022-09-03T07:44:13;16.70;37.30
13198;DHT22;6664;52.514;13.440;2022-09-03T07:46:41;17.10;36.80
13198;DHT22;6664;52.514;13.440;2022-09-03T07:49:09;17.30;36.40
13198;DHT22;6664;52.514;13.440;2022-09-03T07:51:37;17.60;35.70
13198;DHT22;6664;52.514;13.440;2022-09-03T07:54:06;17.70;34.90
13198;DHT22;6664;52.514;13.440;2022-09-03T07:56:39;18.00;34.40
13198;DHT22;6664;52.514;13.440;2022-09-03T07:59:06;18.10;33.50
13198;DHT22;6664;52.514;13.440;2022-09-03T08:01:34;18.30;32.80
13198;DHT22;6664;52.514;13.440;2022-09-03T08:04:03;18.50;32.60
13198;DHT22;6664;52.514;13.440;2022-09-03T08:06:38;18.60;32.10
13198;DHT22;6664;52.514;13.440;2022-09-03T08:09:08;18.80;31.40
13198;DHT22;6664;52.514;13.440;2022-09-03T08:11:38;18.60;31.40
13198;DHT22;6664;52.514;13.440;2022-09-03T08:14:08;18.40;31.50
13198;DHT22;6664;52.514;13.440;2022-09-03T08:16:37;18.20;31.40
13198;DHT22;6664;52.514;13.440;2022-09-03T08:19:08;18.00;31.90
13198;DHT22;6664;52.514;13.440;2022-09-03T08:21:36;17.90;32.00
13198;DHT22;6664;52.514;13.440;2022-09-03T08:24:08;18.00;32.10
13198;DHT22;6664;52.514;13.440;2022-09-03T08:26:40;18.10;32.00
13198;DHT22;6664;52.514;13.440;2022-09-03T08:29:17;18.10;32.20
13198;DHT22;6664;52.514;13.440;2022-09-03T08:31:44;17.90;32.10
13198;DHT22;6664;52.514;13.440;2022-09-03T08:34:11;17.80;32.50
13198;DHT22;6664;52.514;13.440;2022-09-03T08:36:42;17.70;33.30
13198;DHT22;6664;52.514;13.440;2022-09-03T08:39:12;17.50;33.90
13198;DHT22;6664;52.514;13.440;2022-09-03T08:57:42;16.30;37.10
13198;DHT22;6664;52.514;13.440;2022-09-03T09:00:11;16.20;37.40
13198;DHT22;6664;52.514;13.440;2022-09-03T09:08:33;16.10;38.40
13198;DHT22;6664;52.514;13.440;2022-09-03T09:11:07;16.20;37.90
13198;DHT22;6664;52.514;13.440;2022-09-03T09:13:55;16.20;38.40
13198;DHT22;6664;52.514;13.440;2022-09-03T09:24:56;16.40;37.40
13198;DHT22;6664;52.514;13.440;2022-09-03T09:27:24;16.40;37.50
13198;DHT22;6664;52.514;13.440;2022-09-03T09:29:56;16.50;37.40
13198;DHT22;6664;52.514;13.440;2022-09-03T09:32:28;16.70;35.60
13198;DHT22;6664;52.514;13.440;2022-09-03T09:34:56;16.80;34.70
13198;DHT22;6664;52.514;13.440;2022-09-03T09:37:25;16.80;34.80
13198;DHT22;6664;52.514;13.440;2022-09-03T09:39:59;16.80;35.20
13198;DHT22;6664;52.514;13.440;2022-09-03T09:42:26;16.90;35.70
13198;DHT22;6664;52.514;13.440;2022-09-03T09:44:56;16.90;35.70
13198;DHT22;6664;52.514;13.440;2022-09-03T09:47:31;17.00;36.20
13198;DHT22;6664;52.514;13.440;2022-09-03T09:50:02;17.10;34.60
13198;DHT22;6664;52.514;13.440;2022-09-03T09:52:29;17.10;33.70
13198;DHT22;6664;52.514;13.440;2022-09-03T09:55:13;17.30;33.40
13198;DHT22;6664;52.514;13.440;2022-09-03T09:57:40;17.40;31.60
13198;DHT22;6664;52.514;13.440;2022-09-03T10:00:13;17.50;31.50
13198;DHT22;6664;52.514;13.440;2022-09-03T10:02:52;17.70;30.60
13198;DHT22;6664;52.514;13.440;2022-09-03T10:05:29;17.90;30.00
13198;DHT22;6664;52.514;13.440;2022-09-03T10:08:05;17.90;29.40
13198;DHT22;6664;52.514;13.440;2022-09-03T10:10:38;17.90;29.40
13198;DHT22;6664;52.514;13.440;2022-09-03T10:13:13;17.90;28.50
13198;DHT22;6664;52.514;13.440;2022-09-03T10:21:14;18.10;29.10
13198;DHT22;6664;52.514;13.440;2022-09-03T10:24:09;18.30;29.20
13198;DHT22;6664;52.514;13.440;2022-09-03T10:26:46;18.30;29.40
13198;DHT22;6664;52.514;13.440;2022-09-03T10:29:20;18.50;27.90
13198;DHT22;6664;52.514;13.440;2022-09-03T10:37:23;19.00;25.40
13198;DHT22;6664;52.514;13.440;2022-09-03T10:42:40;19.80;23.50
13198;DHT22;6664;52.514;13.440;2022-09-03T10:47:42;20.30;23.10
13198;DHT22;6664;52.514;13.440;2022-09-03T10:50:30;20.70;22.30
13198;DHT22;6664;52.514;13.440;2022-09-03T10:55:51;21.70;21.00
13198;DHT22;6664;52.514;13.440;2022-09-03T11:01:39;21.80;20.70
13198;DHT22;6664;52.514;13.440;2022-09-03T11:09:24;22.90;18.70
13198;DHT22;6664;52.514;13.440;2022-09-03T11:12:15;23.30;18.60
13198;DHT22;6664;52.514;13.440;2022-09-03T11:15:02;23.70;17.80
13198;DHT22;6664;52.514;13.440;2022-09-03T11:17:42;23.50;17.30
13198;DHT22;6664;52.514;13.440;2022-09-03T11:20:20;23.70;17.50
13198;DHT22;6664;52.514;13.440;2022-09-03T11:22:53;24.00;16.60
13198;DHT22;6664;52.514;13.440;2022-09-03T11:25:28;23.90;16.20
13198;DHT22;6664;52.514;13.440;2022-09-03T11:28:22;23.70;16.40
13198;DHT22;6664;52.514;13.440;2022-09-03T11:34:07;24.50;15.00
13198;DHT22;6664;52.514;13.440;2022-09-03T11:36:47;24.90;14.00
13198;DHT22;6664;52.514;13.440;2022-09-03T11:39:34;24.60;13.90
13198;DHT22;6664;52.514;13.440;2022-09-03T11:42:04;24.50;14.30
13198;DHT22;6664;52.514;13.440;2022-09-03T11:44:45;24.50;14.90
13198;DHT22;6664;52.514;13.440;2022-09-03T11:47:37;24.60;14.30
13198;DHT22;6664;52.514;13.440;2022-09-03T11:50:29;24.50;14.40
13198;DHT22;6664;52.514;13.440;2022-09-03T11:56:00;24.70;13.20
13198;DHT22;6664;52.514;13.440;2022-09-03T11:58:36;24.40;13.50
13198;DHT22;6664;52.514;13.440;2022-09-03T12:01:09;24.10;13.50
13198;DHT22;6664;52.514;13.440;2022-09-03T12:03:51;24.00;14.20
13198;DHT22;6664;52.514;13.440;2022-09-03T12:06:54;24.40;13.70
13198;DHT22;6664;52.514;13.440;2022-09-03T12:15:30;23.90;13.20
13198;DHT22;6664;52.514;13.440;2022-09-03T12:18:07;23.90;13.70
13198;DHT22;6664;52.514;13.440;2022-09-03T12:23:42;23.90;13.30
13198;DHT22;6664;52.514;13.440;2022-09-03T12:26:22;24.90;12.90
13198;DHT22;6664;52.514;13.440;2022-09-03T12:28:55;25.60;11.70
13198;DHT22;6664;52.514;13.440;2022-09-03T12:31:43;26.40;11.10
13198;DHT22;6664;52.514;13.440;2022-09-03T12:34:13;26.40;10.00
13198;DHT22;6664;52.514;13.440;2022-09-03T12:36:48;25.70;9.30
13198;DHT22;6664;52.514;13.440;2022-09-03T12:39:17;25.30;10.10
13198;DHT22;6664;52.514;13.440;2022-09-03T12:42:00;26.60;10.50
13198;DHT22;6664;52.514;13.440;2022-09-03T12:44:32;33.50;2.40
13198;DHT22;6664;52.514;13.440;2022-09-03T12:47:11;35.50;1.00
13198;DHT22;6664;52.514;13.440;2022-09-03T12:50:05;40.40;1.00
13198;DHT22;6664;52.514;13.440;2022-09-03T12:58:18;35.00;1.00
13198;DHT22;6664;52.514;13.440;2022-09-03T13:04:21;31.10;1.00
13198;DHT22;6664;52.514;13.440;2022-09-03T13:06:33;31.10;1.00
13198;DHT22;6664;52.514;13.440;2022-09-03T13:09:10;29.80;1.00
13198;DHT22;6664;52.514;13.440;2022-09-03T13:11:39;28.60;2.30
13198;DHT22;6664;52.514;13.440;2022-09-03T13:14:11;27.30;3.80
13198;DHT22;6664;52.514;13.440;2022-09-03T13:25:29;45.20;1.00
13198;DHT22;6664;52.514;13.440;2022-09-03T13:31:37;47.40;1.00
13198;DHT22;6664;52.514;13.440;2022-09-03T13:34:35;47.10;1.00
13198;DHT22;6664;52.514;13.440;2022-09-03T13:39:45;53.70;1.00
13198;DHT22;6664;52.514;13.440;2022-09-03T13:42:26;48.60;1.00
13198;DHT22;6664;52.514;13.440;2022-09-03T13:45:11;46.40;1.00
13198;DHT22;6664;52.514;13.440;2022-09-03T13:47:47;47.90;1.00
13198;DHT22;6664;52.514;13.440;2022-09-03T13:51:29;48.40;1.00
13198;DHT22;6664;52.514;13.440;2022-09-03T13:54:16;46.80;1.00
13198;DHT22;6664;52.514;13.440;2022-09-03T13:57:14;50.20;1.00
13198;DHT22;6664;52.514;13.440;2022-09-03T13:59:52;44.60;1.00
13198;DHT22;6664;52.514;13.440;2022-09-03T14:02:31;38.40;1.00
13198;DHT22;6664;52.514;13.440;2022-09-03T14:08:04;46.00;1.00
13198;DHT22;6664;52.514;13.440;2022-09-03T14:13:46;41.70;1.00
13198;DHT22;6664;52.514;13.440;2022-09-03T14:19:11;37.10;1.00
13198;DHT22;6664;52.514;13.440;2022-09-03T14:21:54;38.90;1.00
13198;DHT22;6664;52.514;13.440;2022-09-03T14:27:36;35.20;1.00
13198;DHT22;6664;52.514;13.440;2022-09-03T14:35:49;29.70;1.00
13198;DHT22;6664;52.514;13.440;2022-09-03T14:52:08;28.80;1.00
13198;DHT22;6664;52.514;13.440;2022-09-03T15:00:36;26.40;4.10
13198;DHT22;6664;52.514;13.440;2022-09-03T15:08:47;25.20;6.80
13198;DHT22;6664;52.514;13.440;2022-09-03T15:11:27;25.00;8.00
13198;DHT22;6664;52.514;13.440;2022-09-03T15:14:19;24.70;7.50
13198;DHT22;6664;52.514;13.440;2022-09-03T15:16:58;24.50;7.80
13198;DHT22;6664;52.514;13.440;2022-09-03T15:23:01;25.40;7.60
13198;DHT22;6664;52.514;13.440;2022-09-03T15:25:21;25.50;7.30
13198;DHT22;6664;52.514;13.440;2022-09-03T15:30:56;24.80;8.30
13198;DHT22;6664;52.514;13.440;2022-09-03T15:33:37;24.80;9.00
13198;DHT22;6664;52.514;13.440;2022-09-03T15:36:22;24.40;8.60
13198;DHT22;6664;52.514;13.440;2022-09-03T15:39:00;24.80;8.80
13198;DHT22;6664;52.514;13.440;2022-09-03T15:41:49;24.20;8.80
13198;DHT22;6664;52.514;13.440;2022-09-03T15:44:19;23.70;9.30
13198;DHT22;6664;52.514;13.440;2022-09-03T15:46:55;23.40;10.40
13198;DHT22;6664;52.514;13.440;2022-09-03T15:49:43;23.40;10.60
13198;DHT22;6664;52.514;13.440;2022-09-03T15:55:32;24.10;10.20
13198;DHT22;6664;52.514;13.440;2022-09-03T16:01:09;23.50;11.40
13198;DHT22;6664;52.514;13.440;2022-09-03T16:03:43;23.60;10.50
13198;DHT22;6664;52.514;13.440;2022-09-03T16:09:37;24.00;9.80
13198;DHT22;6664;52.514;13.440;2022-09-03T16:15:33;23.90;9.90
13198;DHT22;6664;52.514;13.440;2022-09-03T16:24:02;23.80;10.50
13198;DHT22;6664;52.514;13.440;2022-09-03T16:26:41;23.00;11.30
13198;DHT22;6664;52.514;13.440;2022-09-03T16:29:15;22.60;12.50
13198;DHT22;6664;52.514;13.440;2022-09-03T16:40:47;21.40;15.00
13198;DHT22;6664;52.514;13.440;2022-09-03T16:43:25;21.90;14.70
13198;DHT22;6664;52.514;13.440;2022-09-03T16:46:39;21.90;14.30
13198;DHT22;6664;52.514;13.440;2022-09-03T17:00:20;21.40;15.00
13198;DHT22;6664;52.514;13.440;2022-09-03T17:06:06;20.90;15.90
13198;DHT22;6664;52.514;13.440;2022-09-03T17:11:35;20.40;17.10
13198;DHT22;6664;52.514;13.440;2022-09-03T17:14:41;20.30;17.40
13198;DHT22;6664;52.514;13.440;2022-09-03T17:17:36;20.20;17.90
13198;DHT22;6664;52.514;13.440;2022-09-03T17:31:47;19.70;18.90
13198;DHT22;6664;52.514;13.440;2022-09-03T17:48:49;18.70;21.40
13198;DHT22;6664;52.514;13.440;2022-09-03T17:54:16;18.50;22.10
13198;DHT22;6664;52.514;13.440;2022-09-03T17:57:17;18.30;22.70
13198;DHT22;6664;52.514;13.440;2022-09-03T18:05:07;18.00;23.10
13198;DHT22;6664;52.514;13.440;2022-09-03T18:07:43;17.80;23.70
13198;DHT22;6664;52.514;13.440;2022-09-03T18:15:50;17.60;24.90
13198;DHT22;6664;52.514;13.440;2022-09-03T18:18:29;17.60;24.70
13198;DHT22;6664;52.514;13.440;2022-09-03T18:20:59;17.70;24.90
13198;DHT22;6664;52.514;13.440;2022-09-03T18:24:17;17.60;24.70
13198;DHT22;6664;52.514;13.440;2022-09-03T18:27:12;17.70;24.20
13198;DHT22;6664;52.514;13.440;2022-09-03T18:30:06;17.80;24.10
13198;DHT22;6664;52.514;13.440;2022-09-03T18:32:52;17.80;24.30
13198;DHT22;6664;52.514;13.440;2022-09-03T18:35:38;17.90;24.20
13198;DHT22;6664;52.514;13.440;2022-09-03T18:38:29;17.90;23.90
13198;DHT22;6664;52.514;13.440;2022-09-03T18:45:25;18.00;23.70
13198;DHT22;6664;52.514;13.440;2022-09-03T18:48:19;18.10;23.80
13198;DHT22;6664;52.514;13.440;2022-09-03T18:54:38;18.00;23.60
13198;DHT22;6664;52.514;13.440;2022-09-03T19:00:46;18.00;23.90
13198;DHT22;6664;52.514;13.440;2022-09-03T19:07:15;18.00;23.70
13198;DHT22;6664;52.514;13.440;2022-09-03T19:10:13;18.00;23.90
13198;DHT22;6664;52.514;13.440;2022-09-03T19:22:10;17.90;24.30
13198;DHT22;6664;52.514;13.440;2022-09-03T19:25:08;17.90;24.10
13198;DHT22;6664;52.514;13.440;2022-09-03T19:31:01;17.90;24.10
13198;DHT22;6664;52.514;13.440;2022-09-03T19:52:57;17.90;24.20
13198;DHT22;6664;52.514;13.440;2022-09-03T19:55:48;17.90;24.50
13198;DHT22;6664;52.514;13.440;2022-09-03T19:58:46;17.90;24.50
13198;DHT22;6664;52.514;13.440;2022-09-03T20:01:35;17.90;24.40
13198;DHT22;6664;52.514;13.440;2022-09-03T20:04:30;17.90;24.90
13198;DHT22;6664;52.514;13.440;2022-09-03T20:07:17;17.90;24.60
13198;DHT22;6664;52.514;13.440;2022-09-03T20:10:06;17.90;24.50
13198;DHT22;6664;52.514;13.440;2022-09-03T20:13:09;17.80;24.50
13198;DHT22;6664;52.514;13.440;2022-09-03T20:34:10;17.80;24.60
13198;DHT22;6664;52.514;13.440;2022-09-03T20:39:42;17.80;24.40
13198;DHT22;6664;52.514;13.440;2022-09-03T20:44:57;17.70;24.50
13198;DHT22;6664;52.514;13.440;2022-09-03T20:56:22;17.70;24.70
13198;DHT22;6664;52.514;13.440;2022-09-03T21:05:15;17.60;24.90
13198;DHT22;6664;52.514;13.440;2022-09-03T21:13:38;17.30;25.40
13198;DHT22;6664;52.514;13.440;2022-09-03T21:16:27;17.20;25.60
13198;DHT22;6664;52.514;13.440;2022-09-03T21:24:33;17.10;25.90
13198;DHT22;6664;52.514;13.440;2022-09-03T21:27:08;17.00;26.10
13198;DHT22;6664;52.514;13.440;2022-09-03T21:30:01;17.00;26.30
13198;DHT22;6664;52.514;13.440;2022-09-03T21:35:29;17.00;26.70
13198;DHT22;6664;52.514;13.440;2022-09-03T21:38:06;16.90;26.40
13198;DHT22;6664;52.514;13.440;2022-09-03T21:40:42;16.90;26.50
13198;DHT22;6664;52.514;13.440;2022-09-03T21:43:27;16.90;26.60
13198;DHT22;6664;52.514;13.440;2022-09-03T21:49:07;16.80;26.60
13198;DHT22;6664;52.514;13.440;2022-09-03T21:52:17;16.80;26.60
13198;DHT22;6664;52.514;13.440;2022-09-03T21:54:42;16.80;26.60
13198;DHT22;6664;52.514;13.440;2022-09-03T21:57:24;16.80;26.60
13198;DHT22;6664;52.514;13.440;2022-09-03T22:00:31;16.80;26.60
13198;DHT22;6664;52.514;13.440;2022-09-03T22:02:59;16.80;26.70
13198;DHT22;6664;52.514;13.440;2022-09-03T22:08:28;16.80;26.60
13198;DHT22;6664;52.514;13.440;2022-09-03T22:11:09;16.80;26.60
13198;DHT22;6664;52.514;13.440;2022-09-03T22:18:59;16.80;26.60
13198;DHT22;6664;52.514;13.440;2022-09-03T22:21:31;16.70;26.50
13198;DHT22;6664;52.514;13.440;2022-09-03T22:24:16;16.70;26.70
13198;DHT22;6664;52.514;13.440;2022-09-03T22:26:56;16.60;27.00
13198;DHT22;6664;52.514;13.440;2022-09-03T22:29:43;16.50;27.10
13198;DHT22;6664;52.514;13.440;2022-09-03T22:43:41;16.30;27.80
13198;DHT22;6664;52.514;13.440;2022-09-03T22:46:19;16.30;27.90
13198;DHT22;6664;52.514;13.440;2022-09-03T22:51:26;16.40;27.70
13198;DHT22;6664;52.514;13.440;2022-09-03T22:56:39;16.50;27.30
13198;DHT22;6664;52.514;13.440;2022-09-03T23:02:05;16.50;27.40
13198;DHT22;6664;52.514;13.440;2022-09-03T23:04:43;16.40;27.40
13198;DHT22;6664;52.514;13.440;2022-09-03T23:07:23;16.50;27.60
13198;DHT22;6664;52.514;13.440;2022-09-03T23:09:56;16.40;27.60
13198;DHT22;6664;52.514;13.440;2022-09-03T23:12:45;16.40;27.70
13198;DHT22;6664;52.514;13.440;2022-09-03T23:15:21;16.40;27.80
13198;DHT22;6664;52.514;13.440;2022-09-03T23:18:14;16.30;28.00
13198;DHT22;6664;52.514;13.440;2022-09-03T23:20:46;16.20;28.00
13198;DHT22;6664;52.514;13.440;2022-09-03T23:23:27;16.20;28.20